This demonstration page uses our WeatherBlox Daily Observations layout. Learn more.

Left ArrowRight Arrow

Hourly Observations for September 19, 2017

Temp ( °F °C ) Dew Point ( °F °C ) Humidity (%) Winds ( mph kmh ) Pressure ( in mb ) Visibility ( mi km ) Precip ( " mm )
12:54 am 00:54 Clear 68 20 65 18.3 90 90 SE 9 15 29.85 1011 9 14.48406 0 0
1:54 am 01:54 Clear 67 19.4 65 18.3 93 93 SSE 9 15 29.83 1010 8 12.87472 0 0
2:54 am 02:54 Mostly Clear 67 19.4 65 18.3 93 93 SE 8 13 29.82 1010 7 11.26538 0 0
3:54 am 03:54 Clear 66 18.9 65 18.3 96 96 SE 7 11 29.8 1009 7 11.26538 0 0
4:54 am 04:54 Clear 66 18.9 64 17.8 93 93 SSE 8 13 29.78 1009 8 12.87472 0 0
5:54 am 05:54 Clear 67 19.4 64 17.8 91 91 SSE 10 17 29.78 1008 9 14.48406 0 0
6:54 am 06:54 Clear 67 19.4 64 17.8 91 91 SSE 10 17 29.78 1008 8 12.87472 0 0
7:54 am 07:54 Sunny 68 20 65 18.3 90 90 SSE 10 17 29.78 1009 7 11.26538 0 0
8:54 am 08:54 Sunny 71 21.7 66 18.9 84 84 SE 12 19 29.78 1008 9 14.48406 0 0
9:54 am 09:54 Sunny 74 23.3 66 18.9 76 76 SSE 16 26 29.76 1008 10 16.0934 0 0
10:54 am 10:54 Sunny 78 25.6 67 19.4 69 69 SSE 14 22 29.74 1007 10 16.0934 0 0
11:54 am 11:54 Sunny 83 28.3 68 20 61 61 SSE 15 24 29.7 1006 10 16.0934 0 0
12:54 pm 12:54 Sunny 87 30.6 66 18.9 50 50 SSE 21 33 29.65 1004 10 16.0934 0 0
1:54 pm 13:54 Sunny 90 32.2 67 19.4 47 47 SSE 25 41 29.61 1003 10 16.0934 0 0
2:54 pm 14:54 Sunny 91 32.8 67 19.4 45 45 SSE 25 41 29.57 1001 10 16.0934 0 0
3:54 pm 15:54 Sunny 92 33.3 67 19.4 44 44 SSE 28 44 29.54 1001 10 16.0934 0 0
4:54 pm 16:54 Sunny 91 32.8 68 20 47 47 S 26 43 29.52 1000 10 16.0934 0 0
5:54 pm 17:54 Sunny 89 31.7 67 19.4 48 48 SSE 26 43 29.5 999 10 16.0934 0 0
6:54 pm 18:54 Sunny 87 30.6 68 20 53 53 SSE 22 35 29.5 999 10 16.0934 0 0
7:54 pm 19:54 Clear 85 29.4 68 20 57 57 SSE 24 39 29.5 999 10 16.0934 0 0
8:54 pm 20:54 Clear 83 28.3 68 20 61 61 SSE 24 39 29.51 999 10 16.0934 0 0
9:54 pm 21:54 Clear 82 27.8 69 20.6 65 65 SSE 22 35 29.53 1000 10 16.0934 0 0
10:54 pm 22:54 Clear 81 27.2 71 21.7 72 72 SSE 22 35 29.54 1000 10 16.0934 0 0
11:54 pm 23:54 Clear 80 26.7 71 21.7 74 74 SSE 22 35 29.52 1000 10 16.0934 0 0

Powered by AerisWeather